Time;durP1;ratioP1;P1;durP2;ratioP2;P2;SDS_P1;SDS_P2;PMS_P1;PMS_P2;Temp;Humidity;BMP_temperature;BMP_pressure;BME280_temperature;BME280_humidity;BME280_pressure;Samples;Min_cycle;Max_cycle;Signal;HPM_P1;HPM_P2
2024/04/15 00:00:10;;;;;;;3.50;1.70;;;;;;;17.37;55.60;100224.09;2678828;26;19994;-72
2024/04/15 00:01:23;;;;;;;2.00;1.52;;;;;;;17.37;55.52;100232.00;2682765;26;19996;-72
2024/04/15 00:02:36;;;;;;;2.88;1.63;;;;;;;17.37;55.72;100224.97;2674692;26;20002;-72
2024/04/15 00:03:49;;;;;;;3.60;1.38;;;;;;;17.38;55.71;100221.38;2684812;26;20012;-72
2024/04/15 00:05:03;;;;;;;1.85;1.25;;;;;;;17.39;55.97;100219.59;2674682;26;20169;-72
2024/04/15 00:06:16;;;;;;;5.68;2.15;;;;;;;17.38;55.83;100213.47;2678247;26;19998;-72
2024/04/15 00:07:29;;;;;;;1.60;1.30;;;;;;;17.40;55.38;100214.28;2684701;26;20005;-72
2024/04/15 00:08:43;;;;;;;4.60;1.38;;;;;;;17.38;55.75;100218.75;2688252;26;20029;-72
2024/04/15 00:09:56;;;;;;;2.05;1.38;;;;;;;17.36;55.04;100217.97;2670950;26;20384;-72
2024/04/15 00:11:09;;;;;;;2.58;1.50;;;;;;;17.37;55.03;100209.13;2679242;26;20009;-72
2024/04/15 00:12:22;;;;;;;1.65;1.35;;;;;;;17.37;55.38;100213.53;2688688;26;19997;-72
2024/04/15 00:13:36;;;;;;;4.13;1.70;;;;;;;17.36;55.89;100212.69;2688992;26;20032;-72
2024/04/15 00:14:50;;;;;;;3.20;2.72;;;;;;;17.34;56.50;100211.88;2689530;26;20029;-72
2024/04/15 00:16:08;;;;;;;2.42;1.98;;;;;;;17.30;57.32;100206.84;2687386;26;20007;-72
2024/04/15 00:17:21;;;;;;;2.80;2.33;;;;;;;17.25;58.34;100201.75;2666649;26;20008;-72
2024/04/15 00:18:35;;;;;;;1.77;1.63;;;;;;;17.20;58.43;100201.94;2673483;26;20001;-72
2024/04/15 00:19:51;;;;;;;2.95;1.65;;;;;;;17.15;59.03;100203.06;2673632;26;20001;-72
2024/04/15 00:21:09;;;;;;;2.28;1.60;;;;;;;17.10;59.92;100199.78;2677579;26;20370;-72
2024/04/15 00:22:23;;;;;;;2.70;1.90;;;;;;;17.02;59.34;100186.06;2688465;26;20039;-72
2024/04/15 00:23:36;;;;;;;3.25;1.27;;;;;;;16.96;58.22;100182.78;2687197;26;20488;-72
2024/04/15 00:24:49;;;;;;;7.88;2.90;;;;;;;16.90;57.93;100180.38;2670252;26;20026;-72
2024/04/15 00:26:03;;;;;;;2.75;1.42;;;;;;;16.84;58.03;100185.91;2671637;26;19997;-72
2024/04/15 00:27:16;;;;;;;2.00;1.75;;;;;;;16.81;57.93;100187.84;2697626;26;20007;-72
2024/04/15 00:28:29;;;;;;;3.08;1.67;;;;;;;16.76;58.40;100185.34;2686373;26;20013;-73
2024/04/15 00:29:43;;;;;;;3.95;1.85;;;;;;;16.72;58.44;100175.84;2687170;26;19993;-73
2024/04/15 00:30:56;;;;;;;2.22;1.60;;;;;;;16.68;58.55;100177.75;2705646;26;20344;-73
2024/04/15 00:32:09;;;;;;;2.10;1.58;;;;;;;16.65;59.14;100177.00;2687534;26;19997;-73
2024/04/15 00:33:22;;;;;;;5.80;2.03;;;;;;;16.59;59.30;100172.84;2688507;26;20009;-73
2024/04/15 00:34:36;;;;;;;2.03;1.83;;;;;;;16.57;59.30;100175.56;2690897;26;20452;-72
2024/04/15 00:35:49;;;;;;;2.40;2.20;;;;;;;16.55;59.82;100172.13;2673698;26;20200;-72
2024/04/15 00:37:03;;;;;;;8.57;1.90;;;;;;;16.54;60.25;100165.13;2682264;26;19996;-72
2024/04/15 00:38:16;;;;;;;6.18;3.45;;;;;;;16.54;60.20;100178.31;2689945;26;20012;-72
2024/04/15 00:39:30;;;;;;;6.20;2.85;;;;;;;16.52;60.16;100181.94;2670619;26;20035;-72
2024/04/15 00:40:43;;;;;;;4.35;2.08;;;;;;;16.50;60.58;100176.75;2681667;26;20459;-72
2024/04/15 00:41:56;;;;;;;3.42;2.25;;;;;;;16.51;60.92;100178.44;2684139;26;20006;-72
2024/04/15 00:43:10;;;;;;;2.63;2.25;;;;;;;16.49;61.12;100172.38;2694874;26;20083;-72
2024/04/15 00:44:33;;;;;;;1.90;1.60;;;;;;;16.48;60.78;100169.81;2675984;26;20033;-72
2024/04/15 00:45:46;;;;;;;2.83;1.92;;;;;;;16.45;60.58;100164.69;2673190;26;20015;-72
2024/04/15 00:47:03;;;;;;;2.20;1.98;;;;;;;16.42;60.17;100173.56;2687464;26;20001;-72
2024/04/15 00:48:17;;;;;;;6.30;2.10;;;;;;;16.40;60.11;100172.75;2676578;26;20105;-72
2024/04/15 00:49:34;;;;;;;3.80;2.33;;;;;;;16.38;60.34;100173.75;2689681;26;20065;-72
2024/04/15 00:50:48;;;;;;;3.40;2.42;;;;;;;16.34;60.78;100158.06;2694848;26;20482;-72
2024/04/15 00:52:02;;;;;;;2.20;1.92;;;;;;;16.33;60.22;100166.88;2681823;26;20008;-72
2024/04/15 00:53:19;;;;;;;4.00;2.28;;;;;;;16.30;59.89;100156.47;2679723;26;20047;-72
2024/04/15 00:54:33;;;;;;;1.90;1.60;;;;;;;16.26;59.85;100154.88;2705573;26;20011;-72
2024/04/15 00:55:47;;;;;;;5.10;2.47;;;;;;;16.22;59.53;100153.28;2673296;26;20012;-72
2024/04/15 00:57:01;;;;;;;3.35;1.70;;;;;;;16.22;59.33;100152.44;2670469;26;20013;-72
2024/04/15 00:58:16;;;;;;;1.83;1.50;;;;;;;16.21;59.47;100142.81;2679608;26;20001;-72
2024/04/15 00:59:30;;;;;;;2.33;1.80;;;;;;;16.17;58.93;100149.13;2675814;26;20414;-72
2024/04/15 01:00:43;;;;;;;4.60;1.75;;;;;;;16.15;58.81;100149.19;2679752;26;20005;-73
2024/04/15 01:01:57;;;;;;;2.38;1.70;;;;;;;16.15;58.64;100151.81;2670384;26;19994;-73
2024/04/15 01:03:11;;;;;;;2.78;2.05;;;;;;;16.12;58.58;100144.88;2677922;26;20420;-73
2024/04/15 01:04:25;;;;;;;3.78;1.67;;;;;;;16.12;59.01;100147.53;2693202;26;20015;-73
2024/04/15 01:05:38;;;;;;;2.10;1.33;;;;;;;16.12;58.88;100141.41;2695927;26;19993;-72
2024/04/15 01:06:52;;;;;;;5.95;1.70;;;;;;;16.12;59.06;100139.63;2671694;26;20005;-72
2024/04/15 01:08:05;;;;;;;4.18;1.83;;;;;;;16.13;58.66;100144.00;2669573;26;20017;-72
2024/04/15 01:09:18;;;;;;;2.67;1.50;;;;;;;16.13;58.79;100146.63;2670584;27;20012;-72
2024/04/15 01:10:32;;;;;;;2.45;1.90;;;;;;;16.13;58.56;100144.00;2684149;26;20098;-72
2024/04/15 01:11:45;;;;;;;3.28;1.73;;;;;;;16.12;58.13;100142.25;2672549;26;20037;-72
2024/04/15 01:12:58;;;;;;;2.20;1.73;;;;;;;16.13;58.47;100138.72;2675808;26;20000;-72
2024/04/15 01:14:11;;;;;;;4.05;1.58;;;;;;;16.15;58.04;100133.38;2679954;26;20466;-72
2024/04/15 01:15:25;;;;;;;3.65;1.40;;;;;;;16.18;58.56;100135.03;2681323;26;20501;-72
2024/04/15 01:16:39;;;;;;;4.88;2.08;;;;;;;16.18;59.01;100135.88;2690560;26;19996;-72
2024/04/15 01:17:52;;;;;;;4.93;2.30;;;;;;;16.18;59.44;100122.72;2674275;26;20012;-72
2024/04/15 01:19:05;;;;;;;3.08;2.67;;;;;;;16.18;59.39;100120.09;2681917;26;19998;-72
2024/04/15 01:20:19;;;;;;;4.68;2.38;;;;;;;16.17;59.67;100122.81;2696708;26;20042;-72
2024/04/15 01:21:32;;;;;;;4.45;2.35;;;;;;;16.17;59.37;100120.16;2686533;26;20458;-72
2024/04/15 01:23:10;;;;;;;3.42;2.08;;;;;;;16.15;59.79;100125.47;2670819;26;20002;-72
2024/04/15 01:24:23;;;;;;;2.65;2.42;;;;;;;16.13;60.43;100116.78;2670631;26;20017;-72
2024/04/15 01:25:36;;;;;;;3.80;2.00;;;;;;;16.13;60.60;100122.03;2683835;26;19997;-72
2024/04/15 01:26:49;;;;;;;4.70;2.20;;;;;;;16.12;60.55;100125.59;2690669;26;19996;-72
2024/04/15 01:28:03;;;;;;;4.78;2.28;;;;;;;16.08;61.32;100127.53;2681404;26;20336;-72
2024/04/15 01:29:16;;;;;;;4.00;2.75;;;;;;;16.06;61.86;100133.75;2680152;26;20023;-72
2024/04/15 01:30:29;;;;;;;3.92;2.75;;;;;;;16.03;62.20;100125.97;2676593;26;20034;-72
2024/04/15 01:31:43;;;;;;;3.50;2.60;;;;;;;16.02;62.43;100119.84;2684961;26;20001;-72
2024/04/15 01:32:57;;;;;;;4.40;2.70;;;;;;;16.00;62.52;100115.56;2670722;26;20099;-72
2024/04/15 01:34:11;;;;;;;3.92;3.15;;;;;;;15.98;62.86;100105.13;2695354;26;20448;-72
2024/04/15 01:35:24;;;;;;;2.60;2.40;;;;;;;15.95;63.10;100104.34;2690443;26;20080;-72
2024/04/15 01:36:37;;;;;;;8.13;3.30;;;;;;;15.91;63.08;100112.38;2671450;26;20037;-72
2024/04/15 01:37:51;;;;;;;7.15;2.53;;;;;;;15.88;63.54;100109.03;2688736;26;20024;-72
2024/04/15 01:39:04;;;;;;;6.82;3.15;;;;;;;15.86;63.55;100116.97;2690015;26;20466;-72
2024/04/15 01:40:17;;;;;;;3.25;2.58;;;;;;;15.86;63.68;100124.00;2697109;26;20036;-72
2024/04/15 01:41:31;;;;;;;3.15;2.70;;;;;;;15.83;63.82;100113.59;2683038;26;19998;-72
2024/04/15 01:42:44;;;;;;;6.50;3.10;;;;;;;15.81;63.39;100107.53;2675665;26;20010;-72
2024/04/15 01:43:57;;;;;;;3.88;3.00;;;;;;;15.78;63.60;100119.03;2685732;26;20004;-72
2024/04/15 01:45:11;;;;;;;4.07;2.17;;;;;;;15.77;64.14;100113.81;2689373;26;20056;-72
2024/04/15 01:46:24;;;;;;;2.80;2.47;;;;;;;15.75;63.64;100119.16;2689882;26;20453;-72
2024/04/15 01:47:37;;;;;;;3.67;3.33;;;;;;;15.77;63.91;100125.19;2676384;26;20105;-72
2024/04/15 01:48:50;;;;;;;5.65;3.38;;;;;;;15.76;63.98;100112.13;2685148;26;19997;-72
2024/04/15 01:50:04;;;;;;;3.25;2.20;;;;;;;15.76;63.39;100096.34;2677805;26;20037;-72
2024/04/15 01:51:18;;;;;;;7.68;2.67;;;;;;;15.76;63.96;100078.78;2706598;26;20000;-72
2024/04/15 01:52:31;;;;;;;3.47;2.13;;;;;;;15.76;63.47;100086.66;2700566;26;19993;-72
2024/04/15 01:53:44;;;;;;;4.05;2.60;;;;;;;15.77;63.53;100098.03;2706432;26;20073;-72
2024/04/15 01:54:57;;;;;;;2.38;2.17;;;;;;;15.75;63.49;100107.75;2701035;26;19997;-72
2024/04/15 01:56:10;;;;;;;4.25;1.98;;;;;;;15.69;63.24;100112.38;2682594;26;20002;-72
2024/04/15 01:57:24;;;;;;;6.50;3.40;;;;;;;15.66;63.61;100108.94;2682788;26;20408;-72
2024/04/15 01:58:37;;;;;;;6.10;2.67;;;;;;;15.60;63.99;100096.91;2692697;26;20009;-72
2024/04/15 01:59:50;;;;;;;4.47;2.58;;;;;;;15.59;64.02;100095.19;2682532;26;20012;-72
2024/04/15 02:01:04;;;;;;;6.05;2.60;;;;;;;15.57;64.07;100070.72;2676376;26;19997;-72
2024/04/15 02:02:17;;;;;;;5.45;2.50;;;;;;;15.59;64.00;100086.41;2686386;26;19996;-73
2024/04/15 02:03:31;;;;;;;4.63;2.30;;;;;;;15.58;64.48;100093.47;2689220;26;20412;-73
2024/04/15 02:04:44;;;;;;;2.47;2.28;;;;;;;15.57;64.97;100096.16;2677290;26;20001;-73
2024/04/15 02:05:57;;;;;;;5.25;1.88;;;;;;;15.54;64.61;100075.22;2681300;26;20071;-72
2024/04/15 02:07:10;;;;;;;5.50;2.72;;;;;;;15.52;64.69;100063.91;2700927;26;19997;-72
2024/04/15 02:08:23;;;;;;;5.07;3.00;;;;;;;15.48;65.44;100074.53;2689112;26;20016;-72
2024/04/15 02:09:37;;;;;;;5.53;2.88;;;;;;;15.46;66.31;100083.41;2706516;26;19996;-72
2024/04/15 02:10:50;;;;;;;5.40;2.90;;;;;;;15.44;67.16;100082.63;2697011;26;20013;-72
2024/04/15 02:12:04;;;;;;;3.47;2.58;;;;;;;15.42;67.56;100103.69;2689359;26;19997;-72
2024/04/15 02:13:17;;;;;;;7.15;2.60;;;;;;;15.34;67.70;100104.91;2689998;26;20004;-72
2024/04/15 02:14:30;;;;;;;3.50;2.40;;;;;;;15.27;68.01;100097.22;2678132;26;20113;-72
2024/04/15 02:15:43;;;;;;;4.30;3.20;;;;;;;15.21;68.37;100097.47;2686118;26;19997;-72
2024/04/15 02:16:56;;;;;;;4.38;3.28;;;;;;;15.15;68.85;100091.56;2705273;26;20006;-72
2024/04/15 02:18:10;;;;;;;6.53;2.38;;;;;;;15.10;69.45;100099.66;2700384;26;19997;-72
2024/04/15 02:19:23;;;;;;;5.90;3.13;;;;;;;15.02;69.63;100109.53;2679856;26;19998;-72
2024/04/15 02:20:36;;;;;;;3.88;3.47;;;;;;;14.96;70.51;100104.53;2671821;26;20005;-72
2024/04/15 02:21:50;;;;;;;6.30;3.15;;;;;;;14.90;71.47;100099.50;2672107;26;20138;-72
2024/04/15 02:23:03;;;;;;;6.05;2.63;;;;;;;14.79;71.34;100094.59;2688518;26;20350;-72
2024/04/15 02:24:16;;;;;;;7.82;3.38;;;;;;;14.70;72.10;100084.41;2670488;26;20133;-72
2024/04/15 02:25:29;;;;;;;7.63;2.72;;;;;;;14.58;72.63;100083.06;2671730;26;20076;-72
2024/04/15 02:26:42;;;;;;;3.15;2.83;;;;;;;14.48;72.23;100085.13;2672123;26;20001;-72
2024/04/15 02:27:56;;;;;;;3.92;3.30;;;;;;;14.37;72.12;100101.22;2670263;26;20056;-72
2024/04/15 02:29:09;;;;;;;9.93;3.42;;;;;;;14.28;72.92;100098.06;2671257;27;20001;-72
2024/04/15 02:30:22;;;;;;;3.10;2.30;;;;;;;14.21;72.95;100094.75;2673825;26;20008;-72
2024/04/15 02:31:36;;;;;;;6.38;3.55;;;;;;;14.14;72.96;100086.22;2684638;26;20082;-72
2024/04/15 02:32:49;;;;;;;3.65;2.67;;;;;;;14.10;72.74;100076.75;2697758;26;20004;-72
2024/04/15 02:34:02;;;;;;;4.18;2.60;;;;;;;14.05;73.31;100072.56;2672148;26;20021;-72
2024/04/15 02:35:15;;;;;;;2.92;2.20;;;;;;;14.00;72.88;100063.97;2672084;26;20099;-72
2024/04/15 02:36:29;;;;;;;7.47;2.45;;;;;;;13.94;72.89;100072.91;2670501;26;20010;-72
2024/04/15 02:37:42;;;;;;;5.95;2.85;;;;;;;13.91;72.91;100062.47;2673707;26;19997;-72
2024/04/15 02:38:55;;;;;;;6.15;2.30;;;;;;;13.87;73.22;100056.50;2696918;26;20012;-72
2024/04/15 02:40:09;;;;;;;3.67;2.92;;;;;;;13.85;73.09;100057.44;2671977;26;20037;-72
2024/04/15 02:41:22;;;;;;;4.07;2.95;;;;;;;13.82;73.42;100075.91;2680360;26;20070;-72
2024/04/15 02:42:35;;;;;;;7.32;3.72;;;;;;;13.80;73.54;100078.56;2676977;26;20070;-72
2024/04/15 02:43:49;;;;;;;4.57;3.15;;;;;;;13.76;73.50;100082.19;2687224;26;20008;-72
2024/04/15 02:45:02;;;;;;;4.88;2.72;;;;;;;13.73;73.31;100095.38;2670171;26;19997;-71
2024/04/15 02:46:16;;;;;;;8.75;3.30;;;;;;;13.69;74.15;100106.88;2671290;27;20434;-71
2024/04/15 02:47:30;;;;;;;3.97;2.53;;;;;;;13.64;73.96;100114.03;2671932;26;20076;-71
2024/04/15 02:48:43;;;;;;;5.80;2.92;;;;;;;13.62;73.98;100107.97;2684436;26;20040;-71
2024/04/15 02:49:56;;;;;;;8.23;2.83;;;;;;;13.57;73.84;100097.63;2671237;26;19998;-71
2024/04/15 02:51:09;;;;;;;7.40;4.18;;;;;;;13.55;74.38;100083.69;2677805;26;20001;-71
2024/04/15 02:52:22;;;;;;;6.90;2.15;;;;;;;13.52;74.16;100050.56;2679313;26;20002;-72
2024/04/15 02:53:36;;;;;;;8.57;2.92;;;;;;;13.50;73.86;100047.16;2683508;26;20028;-72
2024/04/15 02:54:49;;;;;;;3.53;2.60;;;;;;;13.50;74.24;100046.25;2673295;26;20029;-71
2024/04/15 02:56:02;;;;;;;6.68;2.88;;;;;;;13.49;74.36;100047.19;2671342;26;19993;-72
2024/04/15 02:57:16;;;;;;;3.08;2.75;;;;;;;13.50;73.99;100057.63;2679304;26;20001;-72
2024/04/15 02:58:29;;;;;;;3.53;2.80;;;;;;;13.50;74.41;100070.75;2694761;26;20005;-72
2024/04/15 02:59:42;;;;;;;3.28;2.10;;;;;;;13.49;74.94;100079.50;2671034;27;20080;-72
2024/04/15 03:00:58;;;;;;;4.90;2.80;;;;;;;13.48;74.38;100074.31;2670724;26;20323;-72
2024/04/15 03:02:12;;;;;;;5.45;2.45;;;;;;;13.45;74.65;100064.78;2672394;26;20002;-72
2024/04/15 03:03:25;;;;;;;5.28;2.28;;;;;;;13.43;74.74;100050.84;2670918;26;20006;-72
2024/04/15 03:04:38;;;;;;;5.78;3.75;;;;;;;13.41;74.33;100052.66;2670797;26;20020;-73
2024/04/15 03:05:51;;;;;;;4.60;2.58;;;;;;;13.41;74.60;100052.66;2687639;26;20005;-72
2024/04/15 03:07:05;;;;;;;4.43;3.40;;;;;;;13.43;75.13;100058.72;2684563;26;20045;-72
2024/04/15 03:08:18;;;;;;;6.43;2.75;;;;;;;13.42;74.80;100062.22;2671174;26;20451;-72
2024/04/15 03:09:31;;;;;;;7.55;3.67;;;;;;;13.41;74.67;100065.75;2671918;26;20363;-72
2024/04/15 03:10:44;;;;;;;4.43;2.50;;;;;;;13.36;74.67;100057.16;2671254;26;20311;-72
2024/04/15 03:11:58;;;;;;;8.77;3.00;;;;;;;13.31;74.87;100057.31;2671727;26;20015;-72
2024/04/15 03:13:11;;;;;;;4.18;2.75;;;;;;;13.28;74.41;100062.63;2671788;26;20016;-72
2024/04/15 03:14:24;;;;;;;6.47;3.13;;;;;;;13.26;74.26;100063.56;2681270;26;20048;-72
2024/04/15 03:15:37;;;;;;;6.07;3.53;;;;;;;13.23;74.16;100055.78;2689276;26;20016;-72
2024/04/15 03:16:50;;;;;;;5.63;3.53;;;;;;;13.20;74.32;100059.34;2688654;26;20008;-72
2024/04/15 03:18:04;;;;;;;4.65;2.55;;;;;;;13.20;74.71;100050.63;2688612;26;20033;-72
2024/04/15 03:19:17;;;;;;;3.72;2.33;;;;;;;13.20;74.43;100041.00;2689146;26;20005;-72
2024/04/15 03:20:30;;;;;;;4.50;3.50;;;;;;;13.21;73.75;100028.75;2705059;26;20115;-72
2024/04/15 03:21:44;;;;;;;3.28;2.15;;;;;;;13.19;73.90;100031.44;2700085;26;20471;-72
2024/04/15 03:22:57;;;;;;;3.42;2.22;;;;;;;13.18;74.13;100016.59;2686385;26;20353;-72
2024/04/15 03:24:11;;;;;;;7.93;2.88;;;;;;;13.18;73.29;100010.53;2670590;26;20005;-72
2024/04/15 03:25:24;;;;;;;4.68;2.55;;;;;;;13.15;73.36;100011.47;2671143;26;20121;-72
2024/04/15 03:26:37;;;;;;;4.35;2.60;;;;;;;13.14;73.38;100021.97;2672009;26;20037;-72
2024/04/15 03:27:51;;;;;;;5.93;2.42;;;;;;;13.12;73.05;100029.06;2671289;26;20002;-72
2024/04/15 03:29:04;;;;;;;3.40;3.08;;;;;;;13.12;73.60;100029.06;2670560;26;20042;-72
2024/04/15 03:30:17;;;;;;;4.32;2.08;;;;;;;13.11;72.77;100041.25;2672139;26;20020;-72
2024/04/15 03:31:31;;;;;;;6.15;2.38;;;;;;;13.12;73.27;100027.28;2692244;26;20000;-72
2024/04/15 03:32:44;;;;;;;6.03;2.63;;;;;;;13.10;73.40;100037.78;2691553;26;20056;-72
2024/04/15 03:33:57;;;;;;;4.25;2.53;;;;;;;13.11;73.12;100036.03;2688983;26;20061;-72
2024/04/15 03:35:12;;;;;;;9.55;2.80;;;;;;;13.08;73.07;100044.84;2689281;26;20363;-72
2024/04/15 03:36:26;;;;;;;4.50;2.65;;;;;;;13.07;72.85;100040.50;2688981;26;20001;-72
2024/04/15 03:37:39;;;;;;;9.38;2.42;;;;;;;13.05;73.28;100029.19;2689162;26;20119;-72
2024/04/15 03:38:52;;;;;;;4.95;3.20;;;;;;;13.03;73.26;100024.91;2701137;26;20055;-72
2024/04/15 03:40:06;;;;;;;5.47;2.80;;;;;;;12.95;72.95;100008.56;2682182;26;20428;-72
2024/04/15 03:41:19;;;;;;;3.10;2.38;;;;;;;12.88;73.31;100013.09;2679558;26;20001;-72
2024/04/15 03:42:33;;;;;;;8.32;3.17;;;;;;;12.83;73.71;100023.72;2705560;26;20012;-72
2024/04/15 03:43:46;;;;;;;10.82;2.88;;;;;;;12.81;73.78;100020.28;2699924;26;20005;-72
2024/04/15 03:45:00;;;;;;;5.85;3.22;;;;;;;12.81;73.55;100015.06;2673516;26;20038;-72
2024/04/15 03:46:13;;;;;;;5.00;2.42;;;;;;;12.77;73.92;100010.78;2682558;26;20023;-72
2024/04/15 03:47:26;;;;;;;5.07;2.38;;;;;;;12.74;73.37;99999.56;2696540;26;20000;-72
2024/04/15 03:48:39;;;;;;;3.55;2.33;;;;;;;12.71;73.58;99997.88;2688170;26;20012;-72
2024/04/15 03:49:53;;;;;;;2.95;2.17;;;;;;;12.64;73.91;99999.78;2687835;26;20093;-72
2024/04/15 03:51:06;;;;;;;4.78;3.33;;;;;;;12.63;74.09;99994.63;2689022;26;20024;-72
2024/04/15 03:52:19;;;;;;;3.10;2.85;;;;;;;12.62;73.99;100001.63;2688636;26;20033;-72
2024/04/15 03:53:32;;;;;;;4.68;3.17;;;;;;;12.61;74.28;99997.28;2689139;26;20005;-72
2024/04/15 03:54:46;;;;;;;5.45;3.00;;;;;;;12.62;74.10;99995.50;2688988;26;19997;-72
2024/04/15 03:55:59;;;;;;;6.30;3.42;;;;;;;12.64;74.11;99998.94;2688172;26;20005;-72
2024/04/15 03:57:12;;;;;;;4.72;2.40;;;;;;;12.64;74.65;100004.19;2686774;26;20001;-72
2024/04/15 03:58:25;;;;;;;6.10;3.08;;;;;;;12.64;74.02;100009.41;2685321;26;20016;-72
2024/04/15 03:59:39;;;;;;;9.05;2.80;;;;;;;12.64;74.61;100009.41;2687876;26;20445;-72
2024/04/15 04:00:59;;;;;;;8.80;2.45;;;;;;;12.65;74.54;100014.63;2672560;26;20001;-72
2024/04/15 04:02:12;;;;;;;7.25;2.92;;;;;;;12.63;74.61;100016.41;2694256;26;20398;-72
2024/04/15 04:03:26;;;;;;;6.18;2.38;;;;;;;12.63;74.10;100019.03;2700074;26;20004;-72
2024/04/15 04:04:40;;;;;;;14.88;3.08;;;;;;;12.63;73.91;100031.28;2676067;26;20038;-72
2024/04/15 04:05:54;;;;;;;7.13;2.80;;;;;;;12.63;73.82;100033.91;2671075;26;20002;-72
2024/04/15 04:07:07;;;;;;;3.42;2.63;;;;;;;12.64;73.94;100035.59;2687946;26;20025;-72
2024/04/15 04:08:20;;;;;;;7.10;2.90;;;;;;;12.63;74.05;100034.75;2689406;26;20005;-71
2024/04/15 04:09:34;;;;;;;3.58;2.90;;;;;;;12.64;74.54;100035.59;2688354;26;20004;-71
2024/04/15 04:10:48;;;;;;;4.57;2.50;;;;;;;12.64;74.59;100025.97;2688566;26;20012;-71
2024/04/15 04:12:01;;;;;;;4.50;2.70;;;;;;;12.64;74.48;100036.44;2704945;26;20116;-71
2024/04/15 04:13:14;;;;;;;4.50;2.55;;;;;;;12.63;74.31;100041.75;2693939;26;20010;-71
2024/04/15 04:14:28;;;;;;;5.57;4.00;;;;;;;12.62;74.38;100038.28;2670849;26;20065;-71
2024/04/15 04:15:41;;;;;;;6.63;2.40;;;;;;;12.62;74.26;100046.13;2684718;26;20036;-71
2024/04/15 04:16:54;;;;;;;6.40;3.17;;;;;;;12.63;73.76;100042.59;2685923;26;20028;-71
2024/04/15 04:18:08;;;;;;;14.65;2.78;;;;;;;12.64;73.39;100054.78;2671014;26;20016;-71
2024/04/15 04:19:25;;;;;;;2.70;2.30;;;;;;;12.65;73.68;100047.81;2671741;26;20447;-71
2024/04/15 04:20:38;;;;;;;4.85;2.85;;;;;;;12.67;74.15;100048.59;2699471;26;20004;-71
2024/04/15 04:21:51;;;;;;;3.20;2.20;;;;;;;12.67;74.01;100045.97;2686386;26;20005;-71
2024/04/15 04:23:05;;;;;;;5.95;3.40;;;;;;;12.69;73.86;100049.41;2670798;26;20009;-71
2024/04/15 04:24:18;;;;;;;6.57;3.33;;;;;;;12.72;73.23;100058.94;2687505;26;20417;-71
2024/04/15 04:25:31;;;;;;;5.15;2.22;;;;;;;12.72;73.60;100062.44;2680626;26;20001;-71
2024/04/15 04:26:44;;;;;;;6.10;2.45;;;;;;;12.73;73.91;100053.69;2675228;26;20005;-71
2024/04/15 04:27:58;;;;;;;5.57;2.78;;;;;;;12.73;73.90;100056.31;2672882;26;20084;-72
2024/04/15 04:29:11;;;;;;;3.65;2.30;;;;;;;12.73;73.32;100048.44;2688767;26;20016;-71
2024/04/15 04:30:24;;;;;;;4.30;2.78;;;;;;;12.73;73.38;100044.97;2688912;26;20016;-71
2024/04/15 04:31:38;;;;;;;4.75;3.28;;;;;;;12.73;73.43;100053.69;2688881;26;20322;-71
2024/04/15 04:32:52;;;;;;;5.75;2.53;;;;;;;12.74;73.76;100057.16;2705126;26;20511;-71
2024/04/15 04:34:05;;;;;;;5.13;3.85;;;;;;;12.74;73.81;100059.78;2666430;27;20120;-71
2024/04/15 04:35:18;;;;;;;8.23;3.00;;;;;;;12.74;73.91;100054.53;2660446;26;20002;-71
2024/04/15 04:36:31;;;;;;;3.75;3.05;;;;;;;12.72;74.48;100059.81;2674500;26;20006;-72
2024/04/15 04:37:45;;;;;;;3.83;3.42;;;;;;;12.69;74.17;100061.66;2677537;26;20366;-71
2024/04/15 04:38:58;;;;;;;6.68;2.88;;;;;;;12.66;74.63;100066.06;2673159;26;20018;-71
2024/04/15 04:40:11;;;;;;;5.07;2.72;;;;;;;12.68;74.40;100065.19;2687724;26;20001;-71
2024/04/15 04:41:24;;;;;;;4.22;2.83;;;;;;;12.68;75.14;100070.44;2688675;26;20005;-71
2024/04/15 04:42:42;;;;;;;3.15;2.85;;;;;;;12.66;74.89;100066.06;2677538;26;20014;-71
2024/04/15 04:43:55;;;;;;;6.25;3.08;;;;;;;12.65;74.86;100072.22;2701181;26;20025;-71
2024/04/15 04:45:08;;;;;;;7.68;3.60;;;;;;;12.63;74.92;100066.16;2681657;26;20014;-71
2024/04/15 04:46:21;;;;;;;4.78;2.70;;;;;;;12.62;75.42;100061.84;2671362;26;20009;-71
2024/04/15 04:47:35;;;;;;;7.93;4.07;;;;;;;12.64;75.48;100067.88;2671318;26;20005;-71
2024/04/15 04:48:49;;;;;;;10.70;4.47;;;;;;;12.64;75.56;100061.78;2670854;26;20053;-71
2024/04/15 04:50:02;;;;;;;8.57;5.00;;;;;;;12.64;75.67;100060.00;2674061;26;20016;-71
2024/04/15 04:51:15;;;;;;;4.85;3.47;;;;;;;12.62;75.66;100059.22;2688677;26;20005;-71
2024/04/15 04:52:29;;;;;;;4.68;3.70;;;;;;;12.63;75.49;100055.69;2688130;26;20465;-71
2024/04/15 04:53:42;;;;;;;4.85;4.13;;;;;;;12.62;75.47;100059.22;2688747;26;19997;-76
2024/04/15 04:54:55;;;;;;;3.63;2.92;;;;;;;12.63;76.10;100065.31;2687659;26;20001;-71
2024/04/15 04:56:13;;;;;;;7.05;4.07;;;;;;;12.63;75.51;100057.44;2687476;26;20124;-71
2024/04/15 04:57:26;;;;;;;3.55;3.25;;;;;;;12.64;75.57;100064.38;2705047;26;20004;-71
2024/04/15 04:58:41;;;;;;;7.82;3.70;;;;;;;12.63;76.25;100066.16;2686301;26;20015;-71
2024/04/15 04:59:55;;;;;;;6.13;3.30;;;;;;;12.64;76.03;100069.63;2676000;26;20124;-71
2024/04/15 05:01:13;;;;;;;10.77;5.45;;;;;;;12.65;76.17;100063.50;2671965;26;20009;-71
2024/04/15 05:02:26;;;;;;;5.70;3.45;;;;;;;12.65;76.36;100063.50;2659969;26;20020;-71
2024/04/15 05:03:41;;;;;;;5.30;3.00;;;;;;;12.65;76.86;100064.38;2670621;26;20083;-71
2024/04/15 05:04:56;;;;;;;6.15;4.38;;;;;;;12.64;76.60;100073.09;2670637;26;20016;-71
2024/04/15 05:06:10;;;;;;;4.45;3.08;;;;;;;12.64;76.46;100073.09;2671295;26;20340;-71
2024/04/15 05:07:23;;;;;;;6.05;3.72;;;;;;;12.63;76.58;100071.41;2695227;26;20004;-71
2024/04/15 05:08:37;;;;;;;7.30;4.20;;;;;;;12.64;76.75;100072.25;2692638;26;20005;-71
2024/04/15 05:09:51;;;;;;;4.25;3.85;;;;;;;12.65;76.75;100080.06;2671499;26;20001;-71
2024/04/15 05:11:05;;;;;;;5.07;3.28;;;;;;;12.66;76.68;100075.69;2689063;26;20001;-71
2024/04/15 05:12:18;;;;;;;5.25;3.67;;;;;;;12.66;76.91;100083.53;2706037;26;20036;-71
2024/04/15 05:13:32;;;;;;;5.55;3.35;;;;;;;12.65;76.92;100081.84;2688862;26;20013;-71
2024/04/15 05:14:48;;;;;;;5.10;3.80;;;;;;;12.65;77.42;100074.84;2677390;26;20044;-71
2024/04/15 05:16:06;;;;;;;6.70;4.57;;;;;;;12.66;76.82;100079.16;2694526;26;20073;-71
2024/04/15 05:17:19;;;;;;;6.07;3.28;;;;;;;12.66;77.33;100071.31;2688792;26;20016;-71
2024/04/15 05:18:34;;;;;;;4.82;4.32;;;;;;;12.66;76.61;100067.84;2679238;26;20013;-71
2024/04/15 05:19:47;;;;;;;8.80;3.83;;;;;;;12.66;76.88;100065.22;2672549;26;20021;-71
2024/04/15 05:21:01;;;;;;;8.25;4.63;;;;;;;12.66;76.97;100063.44;2702859;26;20012;-71
2024/04/15 05:22:14;;;;;;;4.65;4.15;;;;;;;12.70;77.12;100063.38;2671967;26;20002;-71
2024/04/15 05:23:29;;;;;;;6.63;4.60;;;;;;;12.72;77.36;100069.44;2680667;26;20005;-71
2024/04/15 05:24:42;;;;;;;4.78;3.10;;;;;;;12.73;77.38;100072.00;2688454;26;20447;-71
2024/04/15 05:25:57;;;;;;;5.97;4.35;;;;;;;12.70;77.24;100069.50;2674558;26;20005;-71
2024/04/15 05:27:11;;;;;;;6.32;3.55;;;;;;;12.70;77.24;100065.97;2701903;26;20011;-71
2024/04/15 05:28:24;;;;;;;6.78;4.28;;;;;;;12.69;76.99;100078.22;2682375;26;20009;-71
2024/04/15 05:29:37;;;;;;;7.03;4.55;;;;;;;12.70;77.12;100087.81;2699743;26;20000;-71
2024/04/15 05:30:52;;;;;;;6.53;4.00;;;;;;;12.71;77.18;100086.06;2687224;26;20413;-71
2024/04/15 05:32:05;;;;;;;11.07;5.32;;;;;;;12.72;77.35;100079.91;2688420;26;20120;-71
2024/04/15 05:33:20;;;;;;;6.10;4.38;;;;;;;12.72;77.02;100087.75;2689308;26;20009;-72
2024/04/15 05:34:35;;;;;;;5.22;3.70;;;;;;;12.72;77.40;100090.38;2687848;26;20001;-71
2024/04/15 05:35:49;;;;;;;6.40;4.47;;;;;;;12.74;77.43;100086.81;2689192;26;20001;-71
2024/04/15 05:37:02;;;;;;;5.47;4.35;;;;;;;12.74;77.64;100089.44;2672786;26;20102;-71
2024/04/15 05:38:16;;;;;;;7.15;4.68;;;;;;;12.75;77.24;100085.06;2677658;26;20015;-71
2024/04/15 05:39:29;;;;;;;5.90;3.25;;;;;;;12.74;76.91;100094.66;2706354;26;20018;-71
2024/04/15 05:40:43;;;;;;;5.50;3.58;;;;;;;12.73;77.35;100094.72;2687773;26;20005;-71
2024/04/15 05:41:57;;;;;;;6.50;3.67;;;;;;;12.73;77.80;100086.88;2677371;26;20042;-71